Time;durP1;ratioP1;P1;durP2;ratioP2;P2;SDS_P1;SDS_P2;PMS_P1;PMS_P2;Temp;Humidity;BMP_temperature;BMP_pressure;BME280_temperature;BME280_humidity;BME280_pressure;Samples;Min_cycle;Max_cycle;Signal;HPM_P1;HPM_P2
2024/02/04 00:00:21;;;;;;;8.70;7.03;;;11.20;99.90;;;;;;5053839;28;20445;-58
2024/02/04 00:02:48;;;;;;;7.37;6.57;;;11.30;99.90;;;;;;5053792;28;20446;-58
2024/02/04 00:05:18;;;;;;;6.80;6.20;;;11.20;99.90;;;;;;5053761;28;20469;-58
2024/02/04 00:07:45;;;;;;;7.53;6.83;;;11.30;99.90;;;;;;5053342;28;20943;-58
2024/02/04 00:10:12;;;;;;;7.50;6.70;;;11.30;99.90;;;;;;5053659;28;20456;-58
2024/02/04 00:12:40;;;;;;;9.33;7.50;;;11.30;99.90;;;;;;5054111;28;20445;-58
2024/02/04 00:15:07;;;;;;;8.77;7.80;;;11.20;99.90;;;;;;5053685;28;20869;-58
2024/02/04 00:17:34;;;;;;;8.40;7.50;;;11.20;99.90;;;;;;5053121;28;20446;-58
2024/02/04 00:20:01;;;;;;;8.73;7.70;;;11.10;99.90;;;;;;5053557;28;20445;-58
2024/02/04 00:22:29;;;;;;;9.33;8.30;;;11.10;99.90;;;;;;5053226;28;20944;-58
2024/02/04 00:25:01;;;;;;;10.10;7.10;;;11.10;99.90;;;;;;5053428;28;20458;-58
2024/02/04 00:27:27;;;;;;;8.17;7.10;;;11.00;99.90;;;;;;5053518;28;20433;-58
2024/02/04 00:29:54;;;;;;;6.40;5.80;;;11.10;99.90;;;;;;5053251;28;20448;-58
2024/02/04 00:32:21;;;;;;;7.00;6.30;;;11.10;99.90;;;;;;5053769;28;20434;-58
2024/02/04 00:34:48;;;;;;;10.40;6.80;;;11.10;99.90;;;;;;5053068;28;20477;-59
2024/02/04 00:37:14;;;;;;;9.17;6.23;;;11.00;99.90;;;;;;5052940;28;20788;-58
2024/02/04 00:39:42;;;;;;;7.20;6.50;;;11.00;99.90;;;;;;5053973;28;20446;-58
2024/02/04 00:42:10;;;;;;;6.93;6.30;;;11.00;99.90;;;;;;5053145;28;20456;-58
2024/02/04 00:44:37;;;;;;;7.43;6.33;;;11.00;99.90;;;;;;5053043;28;20456;-58
2024/02/04 00:47:04;;;;;;;6.93;5.87;;;11.00;99.90;;;;;;5053703;28;20447;-58
2024/02/04 00:49:31;;;;;;;6.80;6.20;;;11.00;99.90;;;;;;5053205;28;20452;-58
2024/02/04 00:51:57;;;;;;;7.50;5.87;;;11.00;99.90;;;;;;5052954;28;20449;-59
2024/02/04 00:54:24;;;;;;;5.93;5.33;;;11.00;99.90;;;;;;5052531;28;20902;-58
2024/02/04 00:56:52;;;;;;;6.17;5.57;;;11.00;99.90;;;;;;5052374;28;20478;-58
2024/02/04 00:59:19;;;;;;;6.17;5.67;;;11.00;99.90;;;;;;5052774;28;20548;-58
2024/02/04 01:01:46;;;;;;;5.83;5.23;;;11.00;99.90;;;;;;5052635;28;20437;-58
2024/02/04 01:04:13;;;;;;;6.80;4.90;;;11.00;99.90;;;;;;5053133;28;20453;-58
2024/02/04 01:06:39;;;;;;;6.60;6.00;;;11.00;99.90;;;;;;5052619;28;21006;-58
2024/02/04 01:09:06;;;;;;;7.07;6.20;;;11.00;99.90;;;;;;5052964;28;20460;-58
2024/02/04 01:11:33;;;;;;;6.90;5.40;;;11.00;99.90;;;;;;5052668;28;20951;-58
2024/02/04 01:14:01;;;;;;;6.57;5.97;;;11.00;99.90;;;;;;5052799;28;20441;-58
2024/02/04 01:16:29;;;;;;;5.80;5.10;;;11.00;99.90;;;;;;5052853;28;20485;-58
2024/02/04 01:18:55;;;;;;;5.70;5.20;;;11.00;99.90;;;;;;5052756;28;20882;-58
2024/02/04 01:21:22;;;;;;;5.07;4.57;;;11.00;99.90;;;;;;5052465;28;20962;-58
2024/02/04 01:23:49;;;;;;;4.47;4.07;;;11.00;99.90;;;;;;5052352;28;20978;-58
2024/02/04 01:26:16;;;;;;;5.80;5.23;;;11.00;99.90;;;;;;5052653;28;20851;-58
2024/02/04 01:28:43;;;;;;;5.93;5.33;;;11.00;99.90;;;;;;5054747;28;20445;-58
2024/02/04 01:31:11;;;;;;;5.50;5.00;;;11.00;99.90;;;;;;5056575;28;20441;-58
2024/02/04 01:33:37;;;;;;;6.23;5.63;;;11.00;99.90;;;;;;5056367;28;20445;-58
2024/02/04 01:36:05;;;;;;;6.20;5.60;;;10.90;99.90;;;;;;5056519;28;20490;-59
2024/02/04 01:38:32;;;;;;;6.43;5.83;;;11.00;99.90;;;;;;5057183;28;20450;-58
2024/02/04 01:40:58;;;;;;;7.17;6.47;;;11.00;99.90;;;;;;5057312;28;20455;-58
2024/02/04 01:43:26;;;;;;;6.20;5.60;;;11.00;99.90;;;;;;5056393;28;20944;-58
2024/02/04 01:45:53;;;;;;;8.70;5.57;;;11.00;99.90;;;;;;5056515;28;20462;-58
2024/02/04 01:48:22;;;;;;;6.40;5.80;;;11.00;99.90;;;;;;5056156;28;20974;-58
2024/02/04 01:50:51;;;;;;;8.00;5.83;;;11.00;99.90;;;;;;5056651;28;20516;-59
2024/02/04 01:53:22;;;;;;;6.13;5.53;;;10.90;99.90;;;;;;5055847;28;20450;-59
2024/02/04 01:55:49;;;;;;;7.40;6.70;;;11.00;99.90;;;;;;5055720;28;21003;-58
2024/02/04 01:58:16;;;;;;;7.40;6.67;;;11.00;99.90;;;;;;5056189;28;20812;-59
2024/02/04 02:00:43;;;;;;;7.70;6.73;;;11.00;99.90;;;;;;5056141;28;20444;-57
2024/02/04 02:03:12;;;;;;;6.60;5.77;;;11.00;99.90;;;;;;5056053;28;20448;-59
2024/02/04 02:05:41;;;;;;;7.33;6.63;;;11.00;99.90;;;;;;5055643;28;20827;-56
2024/02/04 02:08:08;;;;;;;6.57;5.97;;;11.00;99.90;;;;;;5055991;28;20455;-57
2024/02/04 02:10:35;;;;;;;9.50;7.60;;;11.00;99.90;;;;;;5056148;28;20445;-57
2024/02/04 02:13:08;;;;;;;8.27;7.30;;;11.10;99.90;;;;;;5055768;28;20446;-57
2024/02/04 02:15:41;;;;;;;9.10;7.30;;;11.00;99.90;;;;;;5055681;28;20487;-57
2024/02/04 02:18:13;;;;;;;8.17;7.13;;;11.10;99.90;;;;;;5055710;28;20491;-57
2024/02/04 02:21:03;;;;;;;7.97;7.17;;;11.10;99.90;;;;;;5055760;28;20432;-57
2024/02/04 02:23:35;;;;;;;9.83;8.77;;;11.10;99.90;;;;;;5055951;28;20429;-57
2024/02/04 02:26:04;;;;;;;9.40;8.30;;;11.10;99.90;;;;;;5055311;28;20976;-57
2024/02/04 02:28:31;;;;;;;7.97;7.17;;;11.00;99.90;;;;;;5055169;28;20453;-57
2024/02/04 02:30:58;;;;;;;9.07;8.17;;;11.00;99.90;;;;;;5055599;28;20450;-57
2024/02/04 02:33:25;;;;;;;8.20;7.40;;;11.00;99.90;;;;;;5055728;28;20453;-56
2024/02/04 02:35:57;;;;;;;9.90;8.20;;;11.00;99.90;;;;;;5055506;28;20485;-57
2024/02/04 02:38:28;;;;;;;9.03;8.13;;;11.10;99.90;;;;;;5055508;28;20456;-57
2024/02/04 02:40:59;;;;;;;11.33;8.70;;;11.10;99.90;;;;;;5055405;28;20429;-57
2024/02/04 02:43:28;;;;;;;10.00;8.30;;;11.10;99.90;;;;;;5055611;28;20438;-57
2024/02/04 02:45:55;;;;;;;11.90;9.20;;;11.10;99.90;;;;;;5054953;28;20465;-57
2024/02/04 02:48:22;;;;;;;10.60;9.47;;;11.10;99.90;;;;;;5055327;28;20449;-57
2024/02/04 02:50:49;;;;;;;10.77;9.70;;;11.10;99.90;;;;;;5055641;28;20442;-57
2024/02/04 02:53:19;;;;;;;9.97;8.97;;;11.10;99.90;;;;;;5054794;28;20951;-57
2024/02/04 02:55:46;;;;;;;10.23;8.50;;;11.20;99.90;;;;;;5055329;28;20481;-57
2024/02/04 02:58:13;;;;;;;10.40;9.30;;;11.20;99.90;;;;;;5055136;28;20441;-57
2024/02/04 03:00:41;;;;;;;8.00;6.90;;;11.20;99.90;;;;;;5054668;28;20446;-57
2024/02/04 03:03:08;;;;;;;8.40;7.37;;;11.20;99.90;;;;;;5055026;28;20446;-56
2024/02/04 03:05:35;;;;;;;9.50;8.50;;;11.20;99.90;;;;;;5054808;28;20468;-57
2024/02/04 03:08:01;;;;;;;10.20;8.00;;;11.20;99.90;;;;;;5054588;28;20950;-57
2024/02/04 03:10:28;;;;;;;10.07;9.07;;;11.20;99.90;;;;;;5055108;28;20449;-57
2024/02/04 03:12:55;;;;;;;11.00;8.30;;;11.20;99.90;;;;;;5054456;28;20826;-57
2024/02/04 03:15:21;;;;;;;10.40;8.73;;;11.20;99.90;;;;;;5054505;28;20464;-57
2024/02/04 03:17:49;;;;;;;13.50;8.90;;;11.20;99.90;;;;;;5054339;28;20488;-56
2024/02/04 03:20:16;;;;;;;11.53;8.60;;;11.20;99.90;;;;;;5054721;28;20536;-56
2024/02/04 03:22:44;;;;;;;11.10;8.40;;;11.20;99.90;;;;;;5054605;28;20450;-56
2024/02/04 03:25:11;;;;;;;9.40;8.47;;;11.20;99.90;;;;;;5054619;28;20547;-56
2024/02/04 03:27:40;;;;;;;11.37;8.80;;;11.20;99.90;;;;;;5054481;28;20441;-57
2024/02/04 03:30:07;;;;;;;10.23;9.20;;;11.20;99.90;;;;;;5054391;28;20450;-57
2024/02/04 03:32:34;;;;;;;9.53;7.50;;;11.20;99.90;;;;;;5054248;28;20826;-56
2024/02/04 03:35:03;;;;;;;11.90;9.07;;;11.20;99.90;;;;;;5053916;28;20465;-57
2024/02/04 03:37:29;;;;;;;11.40;8.63;;;11.20;99.90;;;;;;5054092;28;20555;-56
2024/02/04 03:39:56;;;;;;;14.93;10.17;;;11.20;99.90;;;;;;5054252;28;20441;-57
2024/02/04 03:42:23;;;;;;;11.07;8.80;;;11.30;99.90;;;;;;5054186;28;20827;-56
2024/02/04 03:44:50;;;;;;;10.03;9.10;;;11.20;99.90;;;;;;5053752;28;20983;-57
2024/02/04 03:47:16;;;;;;;10.13;9.13;;;11.30;99.90;;;;;;5054185;28;20442;-56
2024/02/04 03:49:43;;;;;;;11.07;9.20;;;11.30;99.90;;;;;;5054225;28;20442;-56
2024/02/04 03:52:11;;;;;;;10.70;8.47;;;11.30;99.90;;;;;;5053626;28;20469;-57
2024/02/04 03:54:38;;;;;;;10.53;8.13;;;11.30;99.90;;;;;;5054079;28;20452;-57
2024/02/04 03:57:05;;;;;;;11.10;8.67;;;11.30;99.90;;;;;;5053937;28;20477;-56
2024/02/04 03:59:32;;;;;;;13.50;9.00;;;11.30;99.90;;;;;;5054159;28;20442;-56
2024/02/04 04:01:58;;;;;;;9.50;8.50;;;11.30;99.90;;;;;;5053887;28;20819;-57
2024/02/04 04:04:26;;;;;;;10.50;8.80;;;11.30;99.90;;;;;;5054202;28;20819;-57
2024/02/04 04:06:53;;;;;;;11.37;9.30;;;11.40;99.90;;;;;;5053674;28;20969;-57
2024/02/04 04:09:21;;;;;;;9.90;8.33;;;11.40;99.90;;;;;;5053790;28;20442;-57
2024/02/04 04:11:47;;;;;;;10.00;7.93;;;11.40;99.90;;;;;;5053384;28;20446;-57
2024/02/04 04:14:14;;;;;;;9.77;7.70;;;11.40;99.90;;;;;;5053272;28;20453;-57
2024/02/04 04:16:41;;;;;;;9.10;7.90;;;11.40;99.90;;;;;;5053250;28;21011;-56
2024/02/04 04:19:08;;;;;;;8.73;7.20;;;11.40;99.90;;;;;;5053200;28;20932;-56
2024/02/04 04:21:35;;;;;;;10.47;7.60;;;11.40;99.90;;;;;;5053421;28;20446;-56
2024/02/04 04:24:02;;;;;;;8.13;7.33;;;11.40;99.90;;;;;;5053375;28;20450;-56
2024/02/04 04:26:31;;;;;;;9.23;8.33;;;11.40;99.90;;;;;;5053393;28;20466;-56
2024/02/04 04:28:58;;;;;;;11.37;8.87;;;11.40;99.90;;;;;;5053237;28;20446;-56
2024/02/04 04:31:24;;;;;;;10.40;8.37;;;11.40;99.90;;;;;;5052938;28;20967;-56
2024/02/04 04:33:52;;;;;;;11.03;8.93;;;11.40;99.90;;;;;;5053377;28;20441;-56
2024/02/04 04:36:19;;;;;;;10.77;9.10;;;11.40;99.90;;;;;;5053157;28;20481;-56
2024/02/04 04:38:49;;;;;;;11.20;8.77;;;11.40;99.90;;;;;;5053688;28;20549;-56
2024/02/04 04:41:16;;;;;;;15.20;8.77;;;11.40;99.90;;;;;;5053357;28;20430;-56
2024/02/04 04:43:44;;;;;;;12.10;9.43;;;11.40;99.90;;;;;;5053432;28;20445;-56
2024/02/04 04:46:11;;;;;;;12.30;9.10;;;11.40;99.90;;;;;;5053035;28;20469;-56
2024/02/04 04:48:38;;;;;;;11.97;9.40;;;11.30;99.90;;;;;;5052710;28;20448;-56
2024/02/04 04:51:04;;;;;;;13.50;8.47;;;11.30;99.90;;;;;;5053033;28;20454;-56
2024/02/04 04:53:31;;;;;;;11.07;8.87;;;11.30;99.90;;;;;;5052813;28;20547;-56
2024/02/04 04:55:58;;;;;;;15.73;10.17;;;11.40;99.90;;;;;;5052948;28;20474;-56
2024/02/04 04:58:25;;;;;;;15.70;10.33;;;11.40;99.90;;;;;;5053121;28;20441;-56
2024/02/04 05:00:53;;;;;;;14.17;9.73;;;11.40;99.90;;;;;;5053507;28;20472;-55
2024/02/04 05:03:20;;;;;;;18.73;10.00;;;11.40;99.90;;;;;;5055152;28;20441;-56
2024/02/04 05:05:46;;;;;;;12.80;11.10;;;11.40;99.90;;;;;;5057591;28;20464;-56
2024/02/04 05:08:15;;;;;;;12.20;9.70;;;11.40;99.90;;;;;;5057711;28;20452;-55
2024/02/04 05:10:42;;;;;;;13.57;10.03;;;11.40;99.90;;;;;;5057184;28;20446;-55
2024/02/04 05:13:09;;;;;;;13.80;9.10;;;11.40;99.90;;;;;;5057217;28;20449;-56
2024/02/04 05:15:35;;;;;;;14.40;10.80;;;11.40;99.90;;;;;;5057038;28;20465;-56
2024/02/04 05:18:04;;;;;;;15.37;11.10;;;11.40;99.90;;;;;;5056931;28;20485;-56
2024/02/04 05:20:31;;;;;;;11.90;10.10;;;11.50;99.90;;;;;;5056809;28;20503;-56
2024/02/04 05:22:58;;;;;;;12.60;10.03;;;11.40;99.90;;;;;;5057260;28;20437;-56
2024/02/04 05:25:25;;;;;;;16.97;10.73;;;11.50;99.90;;;;;;5056930;28;20461;-55
2024/02/04 05:27:52;;;;;;;12.87;9.70;;;11.50;99.90;;;;;;5056427;28;20932;-56
2024/02/04 05:30:19;;;;;;;18.93;11.37;;;11.50;99.90;;;;;;5056857;28;20445;-55
2024/02/04 05:32:45;;;;;;;15.67;11.17;;;11.50;99.90;;;;;;5056498;28;20442;-56
2024/02/04 05:35:13;;;;;;;19.67;12.50;;;11.50;99.90;;;;;;5056539;28;20494;-56
2024/02/04 05:37:40;;;;;;;16.07;12.90;;;11.50;99.90;;;;;;5056742;28;20481;-55
2024/02/04 05:40:08;;;;;;;17.13;12.77;;;11.50;99.90;;;;;;5056523;28;20445;-55
2024/02/04 05:42:35;;;;;;;18.27;12.00;;;11.60;99.90;;;;;;5056236;28;20449;-55
2024/02/04 05:45:02;;;;;;;16.57;11.60;;;11.50;99.90;;;;;;5056208;28;20983;-56
2024/02/04 05:47:29;;;;;;;13.03;11.40;;;11.50;99.90;;;;;;5056264;28;20434;-56
2024/02/04 05:49:55;;;;;;;12.50;10.23;;;11.50;99.90;;;;;;5056153;28;20460;-55
2024/02/04 05:52:24;;;;;;;13.67;11.73;;;11.50;99.90;;;;;;5056363;28;20453;-55
2024/02/04 05:54:50;;;;;;;12.13;9.67;;;11.50;99.90;;;;;;5055874;28;20477;-55
2024/02/04 05:57:16;;;;;;;12.23;8.90;;;11.50;99.90;;;;;;5056376;28;20477;-55
2024/02/04 05:59:44;;;;;;;11.70;9.50;;;11.50;99.90;;;;;;5056225;28;20444;-55
2024/02/04 06:02:10;;;;;;;11.43;8.90;;;11.40;99.90;;;;;;5056295;28;20572;-55
2024/02/04 06:04:39;;;;;;;11.70;10.43;;;11.40;99.90;;;;;;5056271;28;20449;-55
2024/02/04 06:07:06;;;;;;;11.50;9.53;;;11.40;99.90;;;;;;5056349;28;20537;-55
2024/02/04 06:09:34;;;;;;;10.00;9.00;;;11.40;99.90;;;;;;5055816;28;20452;-55
2024/02/04 06:12:01;;;;;;;10.30;9.20;;;11.40;99.90;;;;;;5056339;28;20452;-55
2024/02/04 06:14:28;;;;;;;11.50;8.97;;;11.40;99.90;;;;;;5055318;28;20442;-56
2024/02/04 06:16:54;;;;;;;13.60;9.10;;;11.50;99.90;;;;;;5055736;28;20477;-55
2024/02/04 06:19:21;;;;;;;10.70;8.57;;;11.40;99.90;;;;;;5055797;28;20458;-55
2024/02/04 06:21:48;;;;;;;11.53;8.97;;;11.40;99.90;;;;;;5055709;28;20472;-56
2024/02/04 06:24:15;;;;;;;13.33;7.73;;;11.40;99.90;;;;;;5055685;28;20467;-56
2024/02/04 06:26:43;;;;;;;11.90;8.80;;;11.40;99.90;;;;;;5055516;28;20457;-57
2024/02/04 06:29:09;;;;;;;8.77;6.73;;;11.40;99.90;;;;;;5055285;28;20962;-57
2024/02/04 06:31:36;;;;;;;9.03;7.97;;;11.40;99.90;;;;;;5055449;28;20453;-57
2024/02/04 06:34:03;;;;;;;9.97;7.13;;;11.50;99.90;;;;;;5055273;28;20449;-57
2024/02/04 06:36:30;;;;;;;7.83;6.57;;;11.40;99.90;;;;;;5055447;28;20516;-57
2024/02/04 06:38:57;;;;;;;8.20;6.37;;;11.50;99.90;;;;;;5055560;28;20441;-57
2024/02/04 06:41:23;;;;;;;8.70;6.17;;;11.40;99.90;;;;;;5055265;28;20499;-57
2024/02/04 06:43:51;;;;;;;7.20;6.30;;;11.40;99.90;;;;;;5055308;28;20452;-57
2024/02/04 06:46:25;;;;;;;8.53;6.30;;;11.40;99.90;;;;;;5055338;28;20461;-57
2024/02/04 06:48:52;;;;;;;6.90;5.73;;;11.40;99.90;;;;;;5055256;28;20451;-57
2024/02/04 06:51:19;;;;;;;7.73;5.40;;;11.40;99.90;;;;;;5055129;28;20456;-57
2024/02/04 06:53:46;;;;;;;4.93;4.30;;;11.40;99.90;;;;;;5054857;28;20944;-57
2024/02/04 06:56:12;;;;;;;5.83;5.23;;;11.40;99.90;;;;;;5054811;28;20473;-57
2024/02/04 06:58:39;;;;;;;6.20;3.93;;;11.40;99.90;;;;;;5054641;28;20477;-57
2024/02/04 07:01:07;;;;;;;4.40;3.97;;;11.30;99.90;;;;;;5055029;28;20830;-57
2024/02/04 07:03:34;;;;;;;4.87;3.87;;;11.30;99.90;;;;;;5054577;28;20952;-57
2024/02/04 07:06:01;;;;;;;4.57;3.40;;;11.30;99.90;;;;;;5054837;28;20470;-57
2024/02/04 07:08:28;;;;;;;4.07;3.67;;;11.30;99.90;;;;;;5054363;28;20954;-56
2024/02/04 07:10:55;;;;;;;4.43;4.03;;;11.30;99.90;;;;;;5054387;28;20963;-56
2024/02/04 07:13:22;;;;;;;6.03;4.47;;;11.30;99.90;;;;;;5054666;28;20475;-56
2024/02/04 07:15:49;;;;;;;4.40;3.97;;;11.30;99.90;;;;;;5054212;28;20994;-57
2024/02/04 07:18:21;;;;;;;5.30;4.40;;;11.30;99.90;;;;;;5054805;28;20469;-57
2024/02/04 07:20:48;;;;;;;5.23;4.57;;;11.30;99.90;;;;;;5054421;28;20430;-57
2024/02/04 07:23:15;;;;;;;6.30;4.90;;;11.20;99.90;;;;;;5054304;28;20453;-57
2024/02/04 07:25:42;;;;;;;5.33;4.40;;;11.30;99.90;;;;;;5053615;28;20473;-57
2024/02/04 07:28:08;;;;;;;4.67;4.27;;;11.20;99.90;;;;;;5054097;28;20936;-57
2024/02/04 07:30:35;;;;;;;5.03;3.87;;;11.30;99.90;;;;;;5054134;28;20453;-57
2024/02/04 07:33:02;;;;;;;3.63;3.30;;;11.30;99.90;;;;;;5053865;28;20785;-56
2024/02/04 07:35:30;;;;;;;3.90;3.60;;;11.30;99.90;;;;;;5054224;28;20492;-57
2024/02/04 07:37:56;;;;;;;5.57;2.87;;;11.30;99.90;;;;;;5053857;28;20998;-57
2024/02/04 07:40:23;;;;;;;4.33;2.77;;;11.30;99.90;;;;;;5054295;28;20446;-57
2024/02/04 07:42:50;;;;;;;3.10;2.83;;;11.30;99.90;;;;;;5053940;28;20931;-57
2024/02/04 07:45:17;;;;;;;3.00;2.70;;;11.30;99.90;;;;;;5054181;28;20473;-57
2024/02/04 07:47:43;;;;;;;2.30;2.10;;;11.30;99.90;;;;;;5054049;28;20452;-57
2024/02/04 07:50:10;;;;;;;2.40;2.20;;;11.30;99.90;;;;;;5053716;28;20971;-57
2024/02/04 07:52:38;;;;;;;2.80;2.50;;;11.30;99.90;;;;;;5053799;28;20472;-57
2024/02/04 07:55:05;;;;;;;2.50;2.30;;;11.30;99.90;;;;;;5053978;28;20488;-57
2024/02/04 07:57:32;;;;;;;2.80;2.50;;;11.30;99.90;;;;;;5054159;28;20484;-57
2024/02/04 07:59:59;;;;;;;2.87;2.67;;;11.30;99.90;;;;;;5054043;28;20519;-57
2024/02/04 08:02:25;;;;;;;2.40;2.20;;;11.30;99.90;;;;;;5053503;28;20936;-57
2024/02/04 08:04:52;;;;;;;5.03;2.77;;;11.40;99.90;;;;;;5053752;28;20458;-57
2024/02/04 08:07:20;;;;;;;6.37;2.97;;;11.30;99.90;;;;;;5054153;28;20445;-57
2024/02/04 08:09:50;;;;;;;3.10;2.90;;;11.30;99.90;;;;;;5053692;28;20450;-57
2024/02/04 08:12:17;;;;;;;4.20;3.80;;;11.30;99.90;;;;;;5053217;28;20465;-57
2024/02/04 08:14:44;;;;;;;4.63;3.00;;;11.30;99.90;;;;;;5053629;28;20441;-57
2024/02/04 08:17:10;;;;;;;3.37;3.00;;;11.30;99.90;;;;;;5053138;28;20932;-57
2024/02/04 08:19:37;;;;;;;4.60;3.70;;;11.30;99.90;;;;;;5053632;28;20452;-57
2024/02/04 08:22:05;;;;;;;3.77;3.20;;;11.40;99.90;;;;;;5053739;28;20448;-57
2024/02/04 08:24:32;;;;;;;5.20;4.40;;;11.40;99.90;;;;;;5054050;28;20450;-57
2024/02/04 08:27:01;;;;;;;6.50;4.50;;;11.40;99.90;;;;;;5054812;28;20444;-57
2024/02/04 08:29:27;;;;;;;6.30;5.70;;;11.50;99.90;;;;;;5054373;28;20441;-57
2024/02/04 08:31:54;;;;;;;6.97;5.60;;;11.50;99.90;;;;;;5053544;28;20831;-57
2024/02/04 08:34:23;;;;;;;5.27;4.60;;;11.50;99.90;;;;;;5053756;28;20437;-56
2024/02/04 08:36:50;;;;;;;7.77;5.30;;;11.60;99.90;;;;;;5053339;28;20987;-57
2024/02/04 08:39:17;;;;;;;6.80;4.60;;;11.60;99.90;;;;;;5053350;28;20488;-56
2024/02/04 08:41:44;;;;;;;6.60;5.80;;;11.60;99.90;;;;;;5052934;28;20928;-56
2024/02/04 08:44:12;;;;;;;5.70;3.97;;;11.60;99.90;;;;;;5053151;28;20441;-56
2024/02/04 08:46:38;;;;;;;6.00;3.87;;;11.60;99.90;;;;;;5053477;28;20474;-56
2024/02/04 08:49:05;;;;;;;4.70;4.07;;;11.60;99.90;;;;;;5052925;28;20837;-55
2024/02/04 08:51:32;;;;;;;5.30;4.50;;;11.70;99.90;;;;;;5052898;28;20449;-56
2024/02/04 08:53:59;;;;;;;4.03;3.63;;;11.70;99.90;;;;;;5052756;28;20834;-56
2024/02/04 08:56:25;;;;;;;5.10;4.03;;;11.70;99.90;;;;;;5052882;28;20924;-57
2024/02/04 08:58:52;;;;;;;4.67;3.63;;;11.70;99.90;;;;;;5053167;28;20486;-57
2024/02/04 09:01:20;;;;;;;3.70;3.40;;;11.70;99.90;;;;;;5053205;28;20450;-57
2024/02/04 09:03:47;;;;;;;5.17;3.63;;;11.70;99.90;;;;;;5053057;28;20454;-56
2024/02/04 09:06:14;;;;;;;4.07;3.60;;;11.60;99.90;;;;;;5053392;28;20465;-57
2024/02/04 09:08:41;;;;;;;4.27;3.07;;;11.60;99.90;;;;;;5053099;28;20469;-57
2024/02/04 09:11:07;;;;;;;5.13;3.07;;;11.60;99.90;;;;;;5052753;28;20446;-57
2024/02/04 09:13:35;;;;;;;3.37;3.00;;;11.60;99.90;;;;;;5053105;28;20449;-57
2024/02/04 09:16:02;;;;;;;3.27;2.97;;;11.60;99.90;;;;;;5052969;28;20515;-57
2024/02/04 09:18:30;;;;;;;3.40;3.10;;;11.60;99.90;;;;;;5053047;28;20473;-57
2024/02/04 09:20:57;;;;;;;4.00;3.60;;;11.60;99.90;;;;;;5053097;28;20453;-57
2024/02/04 09:23:24;;;;;;;3.67;3.30;;;11.70;99.90;;;;;;5052900;28;20808;-57
2024/02/04 09:25:50;;;;;;;3.70;2.93;;;11.70;99.90;;;;;;5052822;28;20465;-56
2024/02/04 09:28:17;;;;;;;3.30;2.50;;;11.70;99.90;;;;;;5052877;28;20440;-57
2024/02/04 09:30:44;;;;;;;4.53;4.13;;;11.80;99.90;;;;;;5052717;28;20445;-56
2024/02/04 09:33:11;;;;;;;6.97;5.30;;;11.80;99.90;;;;;;5052761;28;20441;-56
2024/02/04 09:35:39;;;;;;;4.07;3.67;;;11.80;99.90;;;;;;5052896;28;20840;-56
2024/02/04 09:38:05;;;;;;;4.60;4.20;;;12.00;99.90;;;;;;5052735;28;20481;-56
2024/02/04 09:40:33;;;;;;;4.83;3.63;;;12.00;99.90;;;;;;5052978;28;20450;-56
2024/02/04 09:43:01;;;;;;;4.80;3.80;;;12.10;99.90;;;;;;5052587;28;20449;-56
2024/02/04 09:45:30;;;;;;;5.70;4.30;;;12.10;99.90;;;;;;5052634;28;20540;-56
2024/02/04 09:47:56;;;;;;;7.20;4.70;;;12.10;99.90;;;;;;5052576;28;20481;-56
2024/02/04 09:50:23;;;;;;;4.00;3.60;;;12.20;99.90;;;;;;5055726;28;20446;-56
2024/02/04 09:52:53;;;;;;;4.27;3.87;;;12.20;99.90;;;;;;5055815;28;20465;-55
2024/02/04 09:55:22;;;;;;;5.23;4.40;;;12.30;99.90;;;;;;5056310;28;20457;-56
2024/02/04 09:57:49;;;;;;;5.93;4.70;;;12.30;99.90;;;;;;5056128;28;20443;-56
2024/02/04 10:00:19;;;;;;;7.60;5.07;;;12.30;99.90;;;;;;5055924;28;20444;-56
2024/02/04 10:02:48;;;;;;;5.70;5.10;;;12.30;99.90;;;;;;5055922;28;20793;-55
2024/02/04 10:05:15;;;;;;;5.57;5.07;;;12.30;99.90;;;;;;5056165;28;20476;-56
2024/02/04 10:07:42;;;;;;;6.77;6.07;;;12.30;99.90;;;;;;5056073;28;20842;-56
2024/02/04 10:10:12;;;;;;;6.70;5.70;;;12.30;99.90;;;;;;5056178;28;20448;-56
2024/02/04 10:12:40;;;;;;;6.20;5.30;;;12.20;99.90;;;;;;5055852;28;20442;-55
2024/02/04 10:15:08;;;;;;;10.23;5.63;;;12.10;99.90;;;;;;5056022;28;20539;-56
2024/02/04 10:17:35;;;;;;;6.67;5.10;;;12.10;99.90;;;;;;5056185;28;20437;-56
2024/02/04 10:20:02;;;;;;;7.97;5.97;;;12.00;99.90;;;;;;5055561;28;20999;-56
2024/02/04 10:22:29;;;;;;;7.47;5.30;;;12.00;99.90;;;;;;5055701;28;20462;-56
2024/02/04 10:25:06;;;;;;;5.30;4.80;;;12.00;99.90;;;;;;5056052;28;20539;-56
2024/02/04 10:27:35;;;;;;;8.10;5.80;;;12.00;99.90;;;;;;5056358;28;20430;-55
2024/02/04 10:30:02;;;;;;;8.47;5.80;;;12.10;99.90;;;;;;5055766;28;20453;-55
2024/02/04 10:32:29;;;;;;;8.35;5.68;;;12.10;99.90;;;;;;5055639;28;20439;-57
2024/02/04 10:34:55;;;;;;;10.47;6.30;;;12.20;99.90;;;;;;5055737;28;20234;-56
2024/02/04 10:37:22;;;;;;;6.60;5.60;;;12.20;99.90;;;;;;5055521;28;20441;-56
2024/02/04 10:39:49;;;;;;;6.40;5.67;;;12.20;99.90;;;;;;5055626;28;20473;-55
2024/02/04 10:42:18;;;;;;;6.70;6.00;;;12.30;99.90;;;;;;5055229;28;20977;-55
2024/02/04 10:44:48;;;;;;;7.50;5.47;;;12.20;99.90;;;;;;5055261;28;20457;-56
2024/02/04 10:47:19;;;;;;;5.80;5.00;;;12.20;99.90;;;;;;5055506;28;20437;-56
2024/02/04 10:49:53;;;;;;;7.47;6.03;;;12.20;99.90;;;;;;5055572;28;20805;-56
2024/02/04 10:52:19;;;;;;;6.97;5.50;;;12.20;99.90;;;;;;5055249;28;20458;-55
2024/02/04 10:54:47;;;;;;;6.50;5.30;;;12.20;99.90;;;;;;5054928;28;20980;-56
2024/02/04 10:57:18;;;;;;;7.37;4.90;;;12.30;99.90;;;;;;5055467;28;20452;-55
2024/02/04 10:59:48;;;;;;;5.30;4.53;;;12.30;99.90;;;;;;5055688;28;20480;-56
2024/02/04 11:02:16;;;;;;;5.97;4.77;;;12.30;99.90;;;;;;5068897;28;20466;-55
2024/02/04 11:04:43;;;;;;;5.30;4.80;;;12.30;99.90;;;;;;5075474;28;20445;-56
2024/02/04 11:07:11;;;;;;;5.53;4.90;;;12.20;99.90;;;;;;5075253;28;20445;-56
2024/02/04 11:09:39;;;;;;;6.10;4.70;;;12.30;99.90;;;;;;5076032;28;20540;-56
2024/02/04 11:12:10;;;;;;;4.90;4.40;;;12.30;99.90;;;;;;5075333;28;20448;-56
2024/02/04 11:14:39;;;;;;;5.70;4.73;;;12.40;99.90;;;;;;5075798;28;20524;-56
2024/02/04 11:17:58;;;;;;;4.80;4.30;;;12.40;99.90;;;;;;5076135;28;20524;-56
2024/02/04 11:20:45;;;;;;;7.27;5.20;;;12.40;99.90;;;;;;5050766;28;20441;-56
2024/02/04 11:23:33;;;;;;;5.90;4.60;;;12.40;99.90;;;;;;5075627;28;20439;-56
2024/02/04 11:26:00;;;;;;;5.70;4.83;;;12.50;99.90;;;;;;5075714;28;20456;-57
2024/02/04 11:28:28;;;;;;;6.30;4.57;;;12.50;99.90;;;;;;5075506;28;20433;-57
2024/02/04 11:30:56;;;;;;;6.30;5.57;;;12.50;99.90;;;;;;5076196;28;20494;-57
2024/02/04 11:33:24;;;;;;;5.23;4.70;;;12.50;99.90;;;;;;5075893;28;20445;-56
2024/02/04 11:36:04;;;;;;;6.27;4.80;;;12.50;99.90;;;;;;5074532;28;20464;-56
2024/02/04 11:38:32;;;;;;;7.03;4.70;;;12.50;99.90;;;;;;5074921;28;20468;-56
2024/02/04 11:40:58;;;;;;;7.10;5.30;;;12.50;99.90;;;;;;5074753;28;20518;-57
2024/02/04 11:43:26;;;;;;;7.97;5.00;;;12.40;99.90;;;;;;5078355;28;20439;-56
2024/02/04 11:45:54;;;;;;;6.97;4.77;;;12.30;99.90;;;;;;5077176;28;20883;-56
2024/02/04 11:48:21;;;;;;;5.27;4.80;;;12.30;99.90;;;;;;5076421;28;20866;-57
2024/02/04 11:50:55;;;;;;;6.93;4.60;;;12.20;99.90;;;;;;5075226;28;20444;-57
2024/02/04 11:53:22;;;;;;;4.93;4.40;;;12.20;99.90;;;;;;5074383;28;20461;-57
2024/02/04 11:55:52;;;;;;;6.07;4.80;;;12.20;99.90;;;;;;5074029;28;20507;-57
2024/02/04 11:58:20;;;;;;;5.43;4.10;;;12.10;99.90;;;;;;5075278;28;20484;-57
2024/02/04 12:00:49;;;;;;;7.80;5.20;;;12.00;99.90;;;;;;5074392;28;20939;-57
2024/02/04 12:03:15;;;;;;;5.23;4.70;;;12.00;99.90;;;;;;5074119;28;20443;-57
2024/02/04 12:05:44;;;;;;;7.80;5.30;;;12.00;99.90;;;;;;5073851;28;20551;-57
2024/02/04 12:08:13;;;;;;;5.93;5.33;;;12.00;99.90;;;;;;5073747;28;20467;-57
2024/02/04 12:10:40;;;;;;;5.37;4.27;;;12.00;99.90;;;;;;5073611;28;20926;-57
2024/02/04 12:13:07;;;;;;;4.60;4.20;;;12.00;99.90;;;;;;5073257;28;20448;-57
2024/02/04 12:15:36;;;;;;;4.13;3.73;;;12.00;99.90;;;;;;5073432;28;20468;-57
2024/02/04 12:18:09;;;;;;;4.10;3.63;;;11.90;99.90;;;;;;5073767;28;20437;-57
2024/02/04 12:20:37;;;;;;;3.90;3.50;;;12.00;99.90;;;;;;5073709;28;20499;-57
2024/02/04 12:23:04;;;;;;;4.37;3.97;;;12.00;99.90;;;;;;5073414;28;20440;-57
2024/02/04 12:25:32;;;;;;;4.60;3.20;;;12.00;99.90;;;;;;5073167;28;20464;-57
2024/02/04 12:28:00;;;;;;;3.53;2.80;;;12.10;99.90;;;;;;5073185;28;20955;-57
2024/02/04 12:30:28;;;;;;;2.60;2.40;;;12.10;99.90;;;;;;5073442;28;20444;-57
2024/02/04 12:32:58;;;;;;;2.70;2.50;;;12.10;99.90;;;;;;5073273;28;20449;-57
2024/02/04 12:35:25;;;;;;;4.40;2.43;;;12.10;99.90;;;;;;5072950;28;21036;-57
2024/02/04 12:37:53;;;;;;;3.10;2.70;;;12.10;99.90;;;;;;5073148;28;20445;-57
2024/02/04 12:40:22;;;;;;;2.80;2.60;;;12.10;99.90;;;;;;5073431;28;20484;-57
2024/02/04 12:42:55;;;;;;;2.60;2.40;;;12.10;99.90;;;;;;5073324;28;20540;-57
2024/02/04 12:45:23;;;;;;;3.30;3.03;;;12.00;99.90;;;;;;5073291;28;20510;-57